KSNK/SNK METAR and TAF weather

Enter ICAO airport designator
Station Type Date Time Source
KSNK METAR 2021/04/13 06:55 UTC NOAA

KSNK 130655Z AUTO 03013KT 10SM SCT050 BKN080 12/02 A3005 RMK AO2 T01200015


Station Type Date Time Source
KSNK Decoded METAR 2021/04/13 06:55 UTC NOAA

Snyder, Winston Field Airport, TX, United States (KSNK) 32-41-36N 100-57-01W
Apr 13, 2021 - 02:55 AM EDT / 2021.04.13 0655 UTC
Wind: from the NNE (030 degrees) at 15 MPH (13 KT):0
Visibility: 10 mile(s):0
Sky conditions: mostly cloudy
Temperature: 53.6 F (12.0 C)
Dew Point: 34.7 F (1.5 C)
Relative Humidity: 48%
Pressure (altimeter): 30.05 in. Hg (1017 hPa)
ob: KSNK 130655Z AUTO 03013KT 10SM SCT050 BKN080 12/02 A3005 RMK AO2 T01200015
cycle: 7

Station Type Date Time Source
KSNK TAF UTC NOAA

Error!

Example: see airport list